createdAt,value
2023-03-22T00:02:09.946Z,10.12
2023-03-22T00:04:37.869Z,10.10
2023-03-22T00:07:07.156Z,9.96
2023-03-22T00:09:35.054Z,9.92
2023-03-22T00:12:03.027Z,9.87
2023-03-22T00:14:31.034Z,9.88
2023-03-22T00:16:59.312Z,9.88
2023-03-22T00:19:29.176Z,9.85
2023-03-22T00:21:57.091Z,9.88
2023-03-22T00:24:26.355Z,9.88
2023-03-22T00:26:54.210Z,9.91
2023-03-22T00:29:22.829Z,9.94
2023-03-22T00:31:52.036Z,9.95
2023-03-22T00:34:19.983Z,9.94
2023-03-22T00:36:48.464Z,9.67
2023-03-22T00:39:16.417Z,9.80
2023-03-22T00:41:45.687Z,9.90
2023-03-22T00:44:13.593Z,9.95
2023-03-22T00:46:41.489Z,9.89
2023-03-22T00:49:09.382Z,9.90
2023-03-22T00:51:37.395Z,9.85
2023-03-22T00:54:05.410Z,9.85
2023-03-22T00:56:33.957Z,9.82
2023-03-22T00:59:11.498Z,9.64
2023-03-22T01:01:39.576Z,9.61
2023-03-22T01:04:07.921Z,9.53
2023-03-22T01:06:36.314Z,9.48
2023-03-22T01:09:05.042Z,9.53
2023-03-22T01:11:32.964Z,9.55
2023-03-22T01:14:01.281Z,9.57
2023-03-22T01:16:30.711Z,9.57
2023-03-22T01:18:58.755Z,9.56
2023-03-22T01:21:26.913Z,9.55
2023-03-22T01:23:54.823Z,9.57
2023-03-22T01:26:22.768Z,9.53
2023-03-22T01:28:51.026Z,9.52
2023-03-22T01:31:18.951Z,9.43
2023-03-22T01:33:48.351Z,9.32
2023-03-22T01:36:16.261Z,9.25
2023-03-22T01:38:44.177Z,9.23
2023-03-22T01:41:12.159Z,9.22
2023-03-22T01:43:42.890Z,9.22
2023-03-22T01:46:11.585Z,9.22
2023-03-22T01:48:46.109Z,9.23
2023-03-22T01:51:19.662Z,9.21
2023-03-22T01:54:06.847Z,9.16
2023-03-22T01:56:38.198Z,9.17
2023-03-22T01:59:08.879Z,9.20
2023-03-22T02:01:54.009Z,9.15
2023-03-22T02:04:25.735Z,9.16
2023-03-22T02:06:58.008Z,9.12
2023-03-22T02:09:29.872Z,9.13
2023-03-22T02:12:10.084Z,9.14
2023-03-22T02:14:58.811Z,9.14
2023-03-22T02:18:01.699Z,9.18
2023-03-22T02:21:20.708Z,9.22
2023-03-22T02:24:23.572Z,9.21
2023-03-22T02:27:27.758Z,9.19
2023-03-22T02:30:07.657Z,9.15
2023-03-22T02:32:55.309Z,9.11
2023-03-22T02:35:43.116Z,9.08
2023-03-22T02:38:58.801Z,9.03
2023-03-22T02:41:39.412Z,8.98
2023-03-22T02:44:16.072Z,9.00
2023-03-22T02:46:47.934Z,9.01
2023-03-22T02:49:22.964Z,8.99
2023-03-22T02:51:59.060Z,8.99
2023-03-22T02:54:34.505Z,9.00
2023-03-22T02:57:09.369Z,9.01
2023-03-22T02:59:39.836Z,9.01
2023-03-22T03:02:10.688Z,8.95
2023-03-22T03:04:43.503Z,8.82
2023-03-22T03:07:15.485Z,8.80
2023-03-22T03:09:45.128Z,8.81
2023-03-22T03:12:20.272Z,8.80
2023-03-22T03:14:48.974Z,8.77
2023-03-22T03:17:26.421Z,8.80
2023-03-22T03:20:08.200Z,8.80
2023-03-22T03:22:46.119Z,8.80
2023-03-22T03:25:23.484Z,8.74
2023-03-22T03:28:00.622Z,8.70
2023-03-22T03:30:34.600Z,8.72
2023-03-22T03:33:09.317Z,8.69
2023-03-22T03:35:42.179Z,8.69
2023-03-22T03:38:16.123Z,8.63
2023-03-22T03:40:47.106Z,8.63
2023-03-22T03:43:17.546Z,8.62
2023-03-22T03:45:46.162Z,8.65
2023-03-22T03:48:19.992Z,8.66
2023-03-22T03:50:50.274Z,8.68
2023-03-22T03:53:18.558Z,8.73
2023-03-22T03:55:46.613Z,8.75
2023-03-22T03:58:17.236Z,8.70
2023-03-22T04:00:47.577Z,8.62
2023-03-22T04:03:15.991Z,8.60
2023-03-22T04:06:10.455Z,8.58
2023-03-22T04:08:41.484Z,8.62
2023-03-22T04:11:09.895Z,8.63
2023-03-22T04:13:39.292Z,8.66
2023-03-22T04:16:12.958Z,8.65
2023-03-22T04:18:40.978Z,8.64
2023-03-22T04:21:12.181Z,8.58
2023-03-22T04:24:10.918Z,8.42
2023-03-22T04:26:42.495Z,8.45
2023-03-22T04:29:24.580Z,8.49
2023-03-22T04:31:58.896Z,8.45
2023-03-22T04:34:32.616Z,8.44
2023-03-22T04:37:03.502Z,8.41
2023-03-22T04:39:37.392Z,8.42
2023-03-22T04:42:27.761Z,8.42
2023-03-22T04:45:12.016Z,8.46
2023-03-22T04:47:41.601Z,8.47
2023-03-22T04:50:10.628Z,8.45
2023-03-22T04:52:48.025Z,8.40
2023-03-22T04:55:16.025Z,8.41
2023-03-22T04:57:45.540Z,8.45
2023-03-22T05:00:15.618Z,8.43
2023-03-22T05:02:44.633Z,8.42
2023-03-22T05:05:22.706Z,8.38
2023-03-22T05:07:51.997Z,8.35
2023-03-22T05:10:20.295Z,8.31
2023-03-22T05:12:48.411Z,8.30
2023-03-22T05:15:21.019Z,8.26
2023-03-22T05:17:50.953Z,8.24
2023-03-22T05:20:19.004Z,8.27
2023-03-22T05:22:56.796Z,8.26
2023-03-22T05:25:27.139Z,8.21
2023-03-22T05:27:55.249Z,8.22
2023-03-22T05:30:43.964Z,8.07
2023-03-22T05:33:23.095Z,7.94
2023-03-22T05:35:55.565Z,8.00
2023-03-22T05:38:24.674Z,8.01
2023-03-22T05:40:55.308Z,8.06
2023-03-22T05:43:23.420Z,8.13
2023-03-22T05:45:53.621Z,8.23
2023-03-22T05:48:38.757Z,8.22
2023-03-22T05:51:07.981Z,8.19
2023-03-22T05:53:36.656Z,8.23
2023-03-22T05:56:13.880Z,8.07
2023-03-22T05:58:43.996Z,8.02
2023-03-22T06:01:17.545Z,8.06
2023-03-22T06:03:49.400Z,8.10
2023-03-22T06:06:28.104Z,8.16
2023-03-22T06:09:17.849Z,8.16
2023-03-22T06:11:50.696Z,8.16
2023-03-22T06:14:18.955Z,8.20
2023-03-22T06:16:59.287Z,8.21
2023-03-22T06:19:27.258Z,8.18
2023-03-22T06:21:56.281Z,8.13
2023-03-22T06:24:27.178Z,8.19
2023-03-22T06:26:55.253Z,8.19
2023-03-22T06:29:23.368Z,8.24
2023-03-22T06:31:54.425Z,8.31
2023-03-22T06:34:23.783Z,8.42
2023-03-22T06:36:51.831Z,8.54
2023-03-22T06:39:32.649Z,8.61
2023-03-22T06:42:01.096Z,8.68
2023-03-22T06:44:29.408Z,8.75
2023-03-22T06:47:08.924Z,8.90
2023-03-22T06:49:59.804Z,8.94
2023-03-22T06:52:40.793Z,8.33
2023-03-22T06:55:10.443Z,8.17
2023-03-22T06:57:38.417Z,8.32
2023-03-22T07:00:07.917Z,8.52
2023-03-22T07:02:36.387Z,8.76
2023-03-22T07:05:28.426Z,8.99
2023-03-22T07:07:56.507Z,9.18
2023-03-22T07:10:26.341Z,9.34
2023-03-22T07:12:54.380Z,9.37
2023-03-22T07:15:24.614Z,9.44
2023-03-22T07:17:59.056Z,9.46
2023-03-22T07:20:28.634Z,9.56
2023-03-22T07:22:57.615Z,9.69
2023-03-22T07:25:28.971Z,9.71
2023-03-22T07:28:08.010Z,9.81
2023-03-22T07:30:37.857Z,9.95
2023-03-22T07:33:07.059Z,9.98
2023-03-22T07:35:37.788Z,9.92
2023-03-22T07:38:06.868Z,9.89
2023-03-22T07:40:35.707Z,9.92
2023-03-22T07:43:04.721Z,10.07
2023-03-22T07:45:42.617Z,10.17
2023-03-22T07:48:42.294Z,10.18
2023-03-22T07:51:31.213Z,10.39
2023-03-22T07:53:59.451Z,10.55
2023-03-22T07:56:27.589Z,10.72
2023-03-22T07:58:55.743Z,10.83
2023-03-22T08:01:24.704Z,10.86
2023-03-22T08:04:09.253Z,10.90
2023-03-22T08:06:47.688Z,10.99
2023-03-22T08:09:15.927Z,11.08
2023-03-22T08:11:43.892Z,11.07
2023-03-22T08:14:11.859Z,10.99
2023-03-22T08:16:41.698Z,11.02
2023-03-22T08:19:09.758Z,11.06
2023-03-22T08:21:38.797Z,11.16
2023-03-22T08:24:15.551Z,11.22
2023-03-22T08:27:09.641Z,11.23
2023-03-22T08:29:47.715Z,11.29
2023-03-22T08:32:16.389Z,11.38
2023-03-22T08:34:44.835Z,11.45
2023-03-22T08:37:13.899Z,11.45
2023-03-22T08:39:45.911Z,11.55
2023-03-22T08:42:27.604Z,11.65
2023-03-22T08:44:55.557Z,11.65
2023-03-22T08:47:26.389Z,11.67
2023-03-22T08:49:58.720Z,11.68
2023-03-22T08:52:39.878Z,11.69
2023-03-22T08:55:30.185Z,11.74
2023-03-22T08:58:11.271Z,11.74
2023-03-22T09:00:49.982Z,11.65
2023-03-22T09:03:28.725Z,11.76
2023-03-22T09:05:56.942Z,11.76
2023-03-22T09:08:24.867Z,11.85
2023-03-22T09:11:00.667Z,12.01
2023-03-22T09:13:31.079Z,12.11
2023-03-22T09:16:02.377Z,12.06
2023-03-22T09:18:33.479Z,12.18
2023-03-22T09:21:05.784Z,12.17
2023-03-22T09:23:41.973Z,12.20
2023-03-22T09:26:13.057Z,12.20
2023-03-22T09:28:41.366Z,12.27
2023-03-22T09:31:11.839Z,12.22
2023-03-22T09:33:41.887Z,12.34
2023-03-22T09:36:11.942Z,12.37
2023-03-22T09:38:42.124Z,12.43
2023-03-22T09:41:17.377Z,12.39
2023-03-22T09:43:49.759Z,12.37
2023-03-22T09:46:23.264Z,12.45
2023-03-22T09:48:51.978Z,12.55
2023-03-22T09:51:38.523Z,12.66
2023-03-22T09:54:15.356Z,12.79
2023-03-22T09:56:48.893Z,12.89
2023-03-22T09:59:23.045Z,12.98
2023-03-22T10:01:57.376Z,13.09
2023-03-22T10:04:37.230Z,13.09
2023-03-22T10:07:11.736Z,13.16
2023-03-22T10:09:47.250Z,13.14
2023-03-22T10:12:24.875Z,13.14
2023-03-22T10:15:01.083Z,13.12
2023-03-22T10:17:30.724Z,13.15
2023-03-22T10:20:05.436Z,13.17
2023-03-22T10:22:37.060Z,13.29
2023-03-22T10:25:07.776Z,13.40
2023-03-22T10:27:38.411Z,13.49
2023-03-22T10:30:11.467Z,13.56
2023-03-22T10:32:56.673Z,13.73
2023-03-22T10:35:25.741Z,13.72
2023-03-22T10:37:55.872Z,13.70
2023-03-22T10:40:27.144Z,13.72
2023-03-22T10:43:00.674Z,13.75
2023-03-22T10:45:29.706Z,13.72
2023-03-22T10:48:01.147Z,13.84
2023-03-22T10:50:33.479Z,13.92
2023-03-22T10:53:05.594Z,14.05
2023-03-22T10:55:33.638Z,14.12
2023-03-22T10:58:15.698Z,14.17
2023-03-22T11:00:49.346Z,14.18
2023-03-22T11:03:37.257Z,14.26
2023-03-22T11:06:09.986Z,14.39
2023-03-22T11:08:46.628Z,14.35
2023-03-22T11:11:22.032Z,14.37
2023-03-22T11:13:57.329Z,14.45
2023-03-22T11:16:25.484Z,14.41
2023-03-22T11:18:53.820Z,14.45
2023-03-22T11:21:27.336Z,14.45
2023-03-22T11:23:59.331Z,14.54
2023-03-22T11:26:30.882Z,14.70
2023-03-22T11:29:08.251Z,14.76
2023-03-22T11:31:55.616Z,14.80
2023-03-22T11:34:27.166Z,14.93
2023-03-22T11:36:57.174Z,15.08
2023-03-22T11:39:28.348Z,15.14
2023-03-22T11:42:01.323Z,15.36
2023-03-22T11:44:35.514Z,15.39
2023-03-22T11:47:05.768Z,15.36
2023-03-22T11:49:43.218Z,15.42
2023-03-22T11:52:13.875Z,15.39
2023-03-22T11:54:43.836Z,15.45
2023-03-22T11:57:17.432Z,15.53
2023-03-22T11:59:56.359Z,15.65
2023-03-22T12:02:28.746Z,15.76
2023-03-22T12:05:06.129Z,15.87
2023-03-22T12:07:36.640Z,15.93
2023-03-22T12:10:08.454Z,15.88
2023-03-22T12:12:41.223Z,15.92
2023-03-22T12:15:17.086Z,15.96
2023-03-22T12:17:50.172Z,15.99
2023-03-22T12:20:26.854Z,16.12
2023-03-22T12:22:56.334Z,16.20
2023-03-22T12:25:28.202Z,16.15
2023-03-22T12:27:58.254Z,16.12
2023-03-22T12:30:31.204Z,16.16
2023-03-22T12:33:03.703Z,16.31
2023-03-22T12:35:34.449Z,16.35
2023-03-22T12:38:10.988Z,16.39
2023-03-22T12:40:42.156Z,16.34
2023-03-22T12:43:17.059Z,16.44
2023-03-22T12:45:50.235Z,16.45
2023-03-22T12:48:21.749Z,16.53
2023-03-22T12:50:54.093Z,16.53
2023-03-22T12:53:26.786Z,16.55
2023-03-22T12:55:56.868Z,16.58
2023-03-22T12:58:27.192Z,16.70
2023-03-22T13:00:59.982Z,16.78
2023-03-22T13:03:31.210Z,16.85
2023-03-22T13:06:06.125Z,16.91
2023-03-22T13:09:13.075Z,16.93
2023-03-22T13:11:41.274Z,16.97
2023-03-22T13:14:12.559Z,17.00
2023-03-22T13:16:51.949Z,17.16
2023-03-22T13:19:30.008Z,17.17
2023-03-22T13:22:17.642Z,17.26
2023-03-22T13:25:06.366Z,17.29
2023-03-22T13:27:37.961Z,17.42
2023-03-22T13:30:15.285Z,17.49
2023-03-22T13:32:51.995Z,17.53
2023-03-22T13:35:24.835Z,17.62
2023-03-22T13:37:53.286Z,17.61
2023-03-22T13:40:30.970Z,17.76
2023-03-22T13:43:12.200Z,17.68
2023-03-22T13:45:59.451Z,17.66
2023-03-22T13:48:40.920Z,17.89
2023-03-22T13:51:14.856Z,18.12
2023-03-22T13:53:47.534Z,18.14
2023-03-22T13:56:34.040Z,18.16
2023-03-22T13:59:04.990Z,18.23
2023-03-22T14:01:36.248Z,18.35
2023-03-22T14:04:10.655Z,18.37
2023-03-22T14:06:46.110Z,18.50
2023-03-22T14:09:21.982Z,18.63
2023-03-22T14:11:54.824Z,18.85
2023-03-22T14:14:28.394Z,18.98
2023-03-22T14:17:04.909Z,19.16
2023-03-22T14:19:35.965Z,19.22
